Time;durP1;ratioP1;P1;durP2;ratioP2;P2;SDS_P1;SDS_P2;PMS_P1;PMS_P2;Temp;Humidity;BMP_temperature;BMP_pressure;BME280_temperature;BME280_humidity;BME280_pressure;Samples;Min_cycle;Max_cycle;Signal;HPM_P1;HPM_P2
2021/11/02 00:01:50;;;;;;;1.98;1.05;;;;;;;16.37;100.00;98772.03;4997579;28;20132;-73
2021/11/02 00:04:19;;;;;;;1.50;1.40;;;;;;;16.40;100.00;98768.31;4996958;28;20132;-72
2021/11/02 00:06:47;;;;;;;1.92;1.40;;;;;;;16.39;100.00;98784.38;4997252;28;20050;-73
2021/11/02 00:09:20;;;;;;;1.77;1.10;;;;;;;16.37;100.00;98789.66;5014273;28;20046;-73
2021/11/02 00:11:49;;;;;;;1.17;1.08;;;;;;;16.35;100.00;98789.31;4997309;28;20026;-74
2021/11/02 00:14:15;;;;;;;1.27;1.05;;;;;;;16.43;100.00;98785.09;4996610;28;20033;-76
2021/11/02 00:16:46;;;;;;;0.90;0.90;;;;;;;16.49;100.00;98794.56;4997354;28;20029;-74
2021/11/02 00:19:14;;;;;;;0.82;0.82;;;;;;;16.43;100.00;98801.16;4997122;28;20425;-74
2021/11/02 00:21:45;;;;;;;0.80;0.80;;;;;;;16.51;100.00;98813.78;4997104;28;20040;-73
2021/11/02 00:24:37;;;;;;;2.38;0.73;;;;;;;16.43;100.00;98823.59;5006817;28;20034;-74
2021/11/02 00:26:59;;;;;;;1.17;1.08;;;;;;;16.54;100.00;98838.19;5013656;28;20038;-74
2021/11/02 00:29:27;;;;;;;1.00;1.00;;;;;;;16.47;100.00;98858.00;4996423;28;20034;-74
2021/11/02 00:31:56;;;;;;;0.93;0.93;;;;;;;16.44;100.00;98864.50;4996400;28;20029;-74
2021/11/02 00:34:24;;;;;;;1.00;1.00;;;;;;;16.46;100.00;98881.72;4996568;28;20038;-74
2021/11/02 00:36:55;;;;;;;0.88;0.88;;;;;;;16.43;100.00;98877.72;4996428;28;20030;-74
2021/11/02 00:39:30;;;;;;;0.90;0.90;;;;;;;16.42;100.00;98880.97;5013859;28;20036;-74
2021/11/02 00:41:58;;;;;;;1.80;1.20;;;;;;;16.49;100.00;98890.03;4996963;28;20075;-74
2021/11/02 00:44:27;;;;;;;1.25;1.13;;;;;;;16.50;100.00;98902.84;5013917;28;20092;-74
2021/11/02 00:46:56;;;;;;;2.33;1.35;;;;;;;16.59;100.00;98918.31;4996406;28;20083;-74
2021/11/02 00:49:24;;;;;;;1.20;1.10;;;;;;;16.53;100.00;98918.03;4996626;28;20036;-74
2021/11/02 00:52:00;;;;;;;2.65;1.23;;;;;;;16.48;100.00;98926.97;5013471;28;20022;-74
2021/11/02 00:54:29;;;;;;;8.15;1.60;;;;;;;16.49;100.00;98922.94;4996087;28;20128;-75
2021/11/02 00:56:59;;;;;;;4.88;1.45;;;;;;;16.55;99.51;98924.00;5014294;28;20030;-74
2021/11/02 00:59:25;;;;;;;7.82;2.17;;;;;;;16.55;96.65;98935.22;4996258;28;20058;-75
2021/11/02 01:01:51;;;;;;;11.38;2.80;;;;;;;16.72;94.20;98942.53;5014549;28;20467;-75
2021/11/02 01:04:19;;;;;;;8.77;2.25;;;;;;;16.70;92.86;98933.72;4996538;28;20400;-75
2021/11/02 01:06:45;;;;;;;13.00;2.75;;;;;;;16.72;92.98;98947.34;4996306;28;20128;-75
2021/11/02 01:09:14;;;;;;;9.18;2.10;;;;;;;16.71;93.84;98946.53;4995440;28;20134;-75
2021/11/02 01:11:43;;;;;;;8.32;1.55;;;;;;;16.74;94.32;98951.31;4996022;28;20034;-75
2021/11/02 01:14:09;;;;;;;11.52;2.80;;;;;;;16.72;94.58;98948.16;4995960;28;20366;-75
2021/11/02 01:16:37;;;;;;;6.80;1.55;;;;;;;16.71;95.02;98940.13;4995894;28;20041;-75
2021/11/02 01:19:05;;;;;;;12.50;2.70;;;;;;;16.71;94.93;98940.94;4995792;28;20128;-75
2021/11/02 01:21:34;;;;;;;12.00;3.03;;;;;;;16.70;95.10;98936.50;4995800;28;20065;-75
2021/11/02 01:24:02;;;;;;;14.15;3.13;;;;;;;16.75;95.31;98946.47;4995729;28;20026;-75
2021/11/02 01:26:33;;;;;;;8.82;3.13;;;;;;;16.76;94.80;98929.19;4996031;28;20072;-74
2021/11/02 01:28:59;;;;;;;12.32;3.15;;;;;;;16.67;94.58;98912.13;4995667;28;20022;-75
2021/11/02 01:31:24;;;;;;;13.27;3.03;;;;;;;16.72;94.47;98925.69;4995687;28;20040;-75
2021/11/02 01:33:50;;;;;;;11.95;2.83;;;;;;;16.72;94.83;98927.69;4995941;28;20084;-75
2021/11/02 01:36:18;;;;;;;14.07;2.95;;;;;;;16.79;94.32;98933.16;4995586;28;20030;-74
2021/11/02 01:38:47;;;;;;;14.55;4.03;;;;;;;16.85;93.60;98939.03;4993911;28;20037;-75
2021/11/02 01:41:18;;;;;;;7.95;2.28;;;;;;;16.86;93.82;98935.78;5012994;28;20396;-75
2021/11/02 01:43:45;;;;;;;10.82;2.47;;;;;;;16.92;93.24;98950.13;5016320;28;20025;-75
2021/11/02 01:46:43;;;;;;;11.70;2.05;;;;;;;16.77;93.59;98935.59;5016898;28;20040;-75
2021/11/02 01:49:10;;;;;;;9.73;3.45;;;;;;;16.71;93.39;98929.69;4980557;28;20030;-75
2021/11/02 01:51:36;;;;;;;14.55;2.60;;;;;;;16.76;93.82;98940.41;5000034;28;20044;-75
2021/11/02 01:54:06;;;;;;;12.70;3.20;;;;;;;16.66;93.90;98935.78;4999340;28;20026;-75
2021/11/02 01:56:33;;;;;;;21.63;3.08;;;;;;;16.54;94.63;98928.03;4999873;28;20053;-75
2021/11/02 01:59:00;;;;;;;13.05;3.10;;;;;;;16.64;94.78;98946.69;5016523;28;20354;-75
2021/11/02 02:01:54;;;;;;;11.10;3.08;;;;;;;16.59;95.56;98955.59;4999663;28;20026;-75
2021/11/02 02:04:37;;;;;;;15.75;4.28;;;;;;;16.59;95.91;98943.59;4999049;28;20030;-75
2021/11/02 02:07:03;;;;;;;;;;;;;;;16.62;95.78;98937.91;5017375;28;20030;-75
2021/11/02 02:09:37;;;;;;;13.48;3.97;;;;;;;16.71;95.35;98940.94;4999252;28;19924;-75
2021/11/02 02:12:12;;;;;;;12.30;3.00;;;;;;;16.74;95.46;98933.66;4999521;28;20034;-75
2021/11/02 02:15:09;;;;;;;12.60;3.17;;;;;;;16.65;95.59;98939.84;4999636;28;20365;-75
2021/11/02 02:18:01;;;;;;;15.55;3.65;;;;;;;16.62;95.71;98932.28;4999071;28;20034;-75
2021/11/02 02:20:41;;;;;;;12.13;4.03;;;;;;;16.55;95.90;98926.81;4997297;28;20046;-75
2021/11/02 02:23:43;;;;;;;13.48;3.25;;;;;;;16.67;96.40;98942.19;4998910;28;20084;-75
2021/11/02 02:26:34;;;;;;;14.85;2.80;;;;;;;16.65;96.68;98937.03;4999496;28;20056;-75
2021/11/02 02:29:06;;;;;;;15.75;4.38;;;;;;;16.71;96.62;98945.75;4999668;28;20044;-75
2021/11/02 02:31:35;;;;;;;22.73;4.03;;;;;;;16.67;97.01;98939.38;5016292;28;20022;-75
2021/11/02 02:34:11;;;;;;;14.95;3.53;;;;;;;16.71;97.39;98943.72;4999024;28;20036;-75
2021/11/02 02:36:37;;;;;;;18.17;3.60;;;;;;;16.76;97.07;98932.00;5016542;28;20076;-75
2021/11/02 02:39:03;;;;;;;21.10;4.35;;;;;;;16.79;97.16;98938.78;4998551;28;20093;-75
2021/11/02 02:41:30;;;;;;;13.88;4.45;;;;;;;16.84;97.67;98949.50;4998510;28;20491;-75
2021/11/02 02:43:58;;;;;;;21.75;6.50;;;;;;;16.78;98.23;98951.25;4998557;28;20058;-74
2021/11/02 02:46:27;;;;;;;11.90;3.88;;;;;;;16.76;99.25;98948.06;4998214;28;20034;-72
2021/11/02 02:48:54;;;;;;;18.35;5.25;;;;;;;16.74;99.85;98956.91;4998047;28;20133;-72
2021/11/02 02:51:21;;;;;;;19.17;4.88;;;;;;;16.75;99.94;98964.13;5015595;28;20457;-70
2021/11/02 02:53:49;;;;;;;12.63;3.80;;;;;;;16.75;100.00;98952.88;4998119;28;20034;-71
2021/11/02 02:56:18;;;;;;;14.98;3.33;;;;;;;16.77;100.00;98947.59;4998379;28;20052;-71
2021/11/02 02:58:53;;;;;;;14.93;3.72;;;;;;;16.77;100.00;98956.03;5015663;28;20026;-71
2021/11/02 03:01:21;;;;;;;22.92;4.95;;;;;;;16.81;100.00;98955.19;4998130;28;20041;-71
2021/11/02 03:03:52;;;;;;;22.38;3.92;;;;;;;16.80;100.00;98962.03;4997931;28;20022;-71
2021/11/02 03:06:21;;;;;;;14.70;4.03;;;;;;;16.82;100.00;98968.78;4998289;28;20539;-71
2021/11/02 03:08:47;;;;;;;14.77;3.08;;;;;;;16.80;100.00;98970.47;5010915;28;20052;-71
2021/11/02 03:11:17;;;;;;;13.65;4.47;;;;;;;16.79;100.00;98974.50;4998224;28;20026;-71
2021/11/02 03:13:54;;;;;;;14.73;3.45;;;;;;;16.82;100.00;98980.03;5016154;28;20076;-71
2021/11/02 03:16:36;;;;;;;14.43;3.33;;;;;;;16.66;100.00;98958.25;5015597;28;20464;-71
2021/11/02 03:49:35;;;;;;;6.88;3.25;;;;;;;16.55;100.00;99063.59;5014158;28;20129;-72
2021/11/02 03:54:52;;;;;;;5.85;2.17;;;;;;;16.52;100.00;99078.53;5014647;28;20072;-72
2021/11/02 03:57:27;;;;;;;11.07;5.03;;;;;;;16.58;100.00;99088.81;4996513;28;20018;-72
2021/11/02 05:09:56;;;;;;;5.63;1.30;;;;;;;16.15;77.42;99213.06;5013791;28;20061;-76
2021/11/02 05:48:58;;;;;;;3.55;0.90;;;;;;;15.56;75.92;99269.53;5017833;28;20052;-75
2021/11/02 05:54:43;;;;;;;3.65;0.90;;;;;;;15.98;72.53;99278.66;5017096;28;20073;-76
2021/11/02 06:00:03;;;;;;;2.63;1.02;;;;;;;16.69;68.38;99268.34;5017050;28;20053;-71
2021/11/02 06:08:31;;;;;;;5.40;1.20;;;;;;;17.34;65.44;99313.03;5016243;28;20492;-73
2021/11/02 06:27:54;;;;;;;3.97;1.20;;;;;;;16.36;68.59;99335.44;5015565;28;20036;-74
2021/11/02 06:30:27;;;;;;;3.17;0.85;;;;;;;16.39;69.19;99343.00;4998476;28;20117;-74
2021/11/02 06:33:09;;;;;;;4.85;1.48;;;;;;;16.49;69.81;99344.09;5015987;28;20025;-74
2021/11/02 06:35:46;;;;;;;2.75;1.08;;;;;;;17.68;65.47;99352.94;4998331;28;20034;-74
2021/11/02 06:51:36;;;;;;;5.63;1.33;;;;;;;20.36;55.44;99389.59;5016013;28;20042;-73
2021/11/02 06:57:46;;;;;;;5.38;1.35;;;;;;;20.73;54.49;99395.00;5015317;28;20092;-72
2021/11/02 07:00:38;;;;;;;2.65;1.25;;;;;;;21.04;52.83;99389.53;5014729;28;20068;-72
2021/11/02 07:17:29;;;;;;;2.70;1.20;;;;;;;22.46;52.72;99421.41;4995747;28;20505;-74
2021/11/02 08:46:42;;;;;;;12.63;3.17;;;;;;;19.79;62.92;99512.59;5009312;28;20037;-77
2021/11/02 08:49:14;;;;;;;14.02;3.65;;;;;;;19.61;63.51;99520.72;5014167;28;20025;-76
2021/11/02 08:51:45;;;;;;;15.30;3.55;;;;;;;19.56;63.94;99512.75;4995851;28;20116;-78
2021/11/02 08:54:11;;;;;;;10.65;2.70;;;;;;;19.47;63.77;99506.91;4996163;28;20029;-77
2021/11/02 08:56:38;;;;;;;13.77;3.53;;;;;;;19.57;64.08;99508.69;4996295;28;20038;-77
2021/11/02 08:59:06;;;;;;;13.30;3.15;;;;;;;19.84;62.48;99495.13;4996089;28;20392;-77
2021/11/02 09:01:40;;;;;;;12.57;2.42;;;;;;;19.99;61.48;99506.84;4996641;28;20081;-77
2021/11/02 09:04:08;;;;;;;11.93;3.13;;;;;;;19.93;61.33;99507.81;4996036;28;20133;-78
2021/11/02 09:06:37;;;;;;;8.98;2.72;;;;;;;19.99;61.47;99511.69;4980065;28;20100;-78
2021/11/02 09:09:06;;;;;;;12.27;2.83;;;;;;;19.88;62.15;99507.13;4995782;28;20049;-78
2021/11/02 09:11:42;;;;;;;11.18;3.22;;;;;;;19.61;62.66;99498.94;4996612;28;20441;-77
2021/11/02 09:14:21;;;;;;;13.32;3.28;;;;;;;20.28;60.48;99512.50;5013842;28;20030;-77
2021/11/02 09:16:48;;;;;;;12.00;3.30;;;;;;;21.09;58.41;99516.25;5013990;28;20349;-77
2021/11/02 09:19:17;;;;;;;9.20;2.97;;;;;;;21.59;56.17;99517.56;4996265;28;20088;-77
2021/11/02 09:21:50;;;;;;;11.45;2.55;;;;;;;21.94;55.01;99515.56;4995914;28;20104;-77
2021/11/02 09:24:24;;;;;;;12.75;3.92;;;;;;;21.84;55.52;99522.38;4995886;28;20037;-77
2021/11/02 09:26:50;;;;;;;9.63;2.85;;;;;;;21.06;57.34;99522.81;4992686;28;20030;-77
2021/11/02 09:29:18;;;;;;;15.23;3.40;;;;;;;20.74;58.40;99530.22;5013169;28;20117;-78
2021/11/02 09:31:45;;;;;;;13.63;3.33;;;;;;;20.43;59.38;99524.22;4996101;28;20080;-77
2021/11/02 09:34:14;;;;;;;14.23;3.20;;;;;;;20.08;60.04;99525.94;4995670;28;20117;-78
2021/11/02 09:37:16;;;;;;;11.43;2.63;;;;;;;20.17;59.91;99545.09;4995708;28;20117;-78
2021/11/02 09:39:48;;;;;;;15.95;3.88;;;;;;;20.02;60.10;99548.28;5013272;28;20029;-77
2021/11/02 09:42:54;;;;;;;10.63;3.40;;;;;;;19.91;59.93;99541.31;5012648;28;20531;-76
2021/11/02 09:46:07;;;;;;;12.98;2.70;;;;;;;19.67;59.77;99533.06;5010222;28;20029;-77
2021/11/02 09:48:53;;;;;;;13.73;4.28;;;;;;;19.88;59.85;99551.50;4995070;28;20038;-77
2021/11/02 09:51:51;;;;;;;7.28;2.17;;;;;;;20.53;58.73;99542.13;5013857;28;20125;-78
2021/11/02 09:54:34;;;;;;;13.00;3.40;;;;;;;21.70;56.13;99551.97;4995323;28;20116;-77
2021/11/02 09:57:44;;;;;;;10.45;2.78;;;;;;;21.27;56.83;99550.47;4996113;28;20029;-77
2021/11/02 10:00:32;;;;;;;10.55;2.92;;;;;;;21.26;56.25;99557.38;4973801;28;20092;-77
2021/11/02 10:03:23;;;;;;;11.63;2.90;;;;;;;21.37;54.61;99545.75;4996498;28;20030;-77
2021/11/02 10:06:20;;;;;;;9.30;2.30;;;;;;;21.55;54.00;99550.84;4998586;28;20038;-78
2021/11/02 10:09:13;;;;;;;10.57;3.03;;;;;;;21.58;53.51;99558.44;4988192;28;20061;-77
2021/11/02 10:11:39;;;;;;;13.35;2.90;;;;;;;21.35;54.49;99557.50;4978988;28;20026;-76
2021/11/02 10:14:29;;;;;;;10.90;2.88;;;;;;;20.85;55.04;99570.28;4979337;28;20389;-76
2021/11/02 10:17:04;;;;;;;12.43;2.95;;;;;;;20.69;55.27;99570.34;4978756;28;20383;-80
2021/11/02 10:20:00;;;;;;;8.30;3.30;;;;;;;20.54;56.52;99580.47;4973618;28;20041;-80
2021/11/02 10:22:50;;;;;;;12.38;3.47;;;;;;;20.35;57.42;99574.47;4978428;28;20113;-80
2021/11/02 10:25:29;;;;;;;10.98;2.55;;;;;;;20.29;57.26;99570.56;4978674;28;20041;-75
2021/11/02 10:28:27;;;;;;;9.75;2.30;;;;;;;20.12;57.68;99571.84;4978439;28;20161;-79
2021/11/02 10:31:11;;;;;;;12.18;3.20;;;;;;;20.20;58.17;99573.25;4978242;28;20073;-76
2021/11/02 10:33:37;;;;;;;;;;;;;;;20.02;58.55;99568.06;4997080;28;20551;-80
2021/11/02 10:36:21;;;;;;;7.90;1.90;;;;;;;20.03;58.92;99568.88;4979139;28;19910;-78
2021/11/02 10:39:09;;;;;;;11.45;2.72;;;;;;;20.06;59.05;99565.16;4978600;28;20041;-79
2021/11/02 10:41:49;;;;;;;9.77;2.55;;;;;;;20.64;56.77;99562.41;4995979;28;20034;-78
2021/11/02 10:44:29;;;;;;;10.55;2.20;;;;;;;21.43;54.62;99566.56;4975755;28;20034;-78
2021/11/02 10:47:04;;;;;;;12.73;2.53;;;;;;;21.76;54.25;99564.28;4978336;28;20058;-75
2021/11/02 10:50:00;;;;;;;10.00;2.83;;;;;;;22.00;53.49;99559.06;4978355;28;20442;-79
2021/11/02 10:52:33;;;;;;;10.38;2.25;;;;;;;22.13;53.13;99550.56;4978077;28;20371;-81
2021/11/02 10:55:18;;;;;;;11.18;2.38;;;;;;;22.49;51.52;99570.75;4978213;28;20469;-81
2021/11/02 10:58:11;;;;;;;10.13;3.40;;;;;;;22.19;52.18;99568.56;4978613;28;20038;-79
2021/11/02 11:00:41;;;;;;;9.77;3.47;;;;;;;22.18;52.19;99578.31;4977794;28;20041;-76
2021/11/02 11:03:13;;;;;;;9.63;2.75;;;;;;;22.65;51.48;99568.97;4978379;28;20037;-78
2021/11/02 11:05:46;;;;;;;6.27;2.17;;;;;;;22.79;50.10;99574.09;4978423;28;20030;-80
2021/11/02 11:08:19;;;;;;;10.57;3.05;;;;;;;23.37;48.51;99576.41;5001773;28;20145;-80
2021/11/02 11:10:49;;;;;;;;;;;;;;;23.78;47.77;99574.41;4997520;28;20088;-80
2021/11/02 11:13:18;;;;;;;12.32;2.95;;;;;;;23.71;46.77;99583.22;4997284;28;19917;-80
2021/11/02 11:15:44;;;;;;;6.07;2.03;;;;;;;22.89;48.50;99572.16;4997541;28;20106;-80
2021/11/02 11:18:10;;;;;;;6.80;2.15;;;;;;;22.87;48.22;99569.78;4997481;28;20497;-80
2021/11/02 11:20:40;;;;;;;9.35;2.42;;;;;;;22.93;48.99;99573.63;4996537;28;20033;-80
2021/11/02 11:23:11;;;;;;;9.30;2.28;;;;;;;22.33;50.90;99565.25;4996641;28;20026;-80
2021/11/02 11:25:49;;;;;;;8.88;1.80;;;;;;;21.73;52.70;99568.03;4997302;28;20145;-79
2021/11/02 11:28:19;;;;;;;9.00;2.30;;;;;;;21.48;53.29;99556.72;4997545;28;20034;-79
2021/11/02 11:30:48;;;;;;;9.63;3.03;;;;;;;21.96;52.38;99559.19;4997332;28;20037;-82
2021/11/02 11:33:18;;;;;;;9.25;2.60;;;;;;;22.20;51.63;99553.13;5015554;28;20142;-81
2021/11/02 11:35:47;;;;;;;6.18;1.98;;;;;;;22.29;51.89;99550.41;5014750;28;20048;-78
2021/11/02 11:38:16;;;;;;;8.13;2.65;;;;;;;21.92;52.28;99547.16;4997126;28;20034;-80
2021/11/02 11:40:45;;;;;;;8.40;3.20;;;;;;;22.18;52.57;99572.66;4994140;28;20034;-80
2021/11/02 11:43:13;;;;;;;9.43;2.38;;;;;;;22.26;52.27;99570.34;4997430;28;20365;-75
2021/11/02 11:45:43;;;;;;;10.15;2.17;;;;;;;22.74;51.31;99572.69;4997177;28;20141;-77
2021/11/02 11:48:26;;;;;;;7.22;2.28;;;;;;;22.53;50.44;99578.31;4997280;28;20026;-82
2021/11/02 11:50:53;;;;;;;11.13;3.08;;;;;;;22.07;51.57;99570.16;5014539;28;20252;-78
2021/11/02 11:53:22;;;;;;;9.55;2.92;;;;;;;21.95;52.23;99566.09;4997018;28;20476;-75
2021/11/02 11:56:05;;;;;;;8.93;2.22;;;;;;;22.18;51.40;99555.66;5013273;28;20026;-80
2021/11/02 11:58:31;;;;;;;9.20;2.33;;;;;;;22.34;50.29;99572.47;4996554;28;20026;-80
2021/11/02 12:01:15;;;;;;;12.63;1.67;;;;;;;22.22;49.40;99573.31;5013952;28;20473;-76
2021/11/02 12:03:55;;;;;;;8.18;1.95;;;;;;;22.02;49.93;99561.44;4996456;28;20384;-77
2021/11/02 12:06:27;;;;;;;9.32;2.28;;;;;;;22.08;49.94;99571.72;4996756;28;20176;-81
2021/11/02 12:09:10;;;;;;;8.93;1.98;;;;;;;21.64;50.41;99577.22;4996616;28;20119;-78
2021/11/02 12:11:39;;;;;;;9.38;1.80;;;;;;;21.30;51.74;99568.59;4996779;28;20026;-80
2021/11/02 12:14:12;;;;;;;7.50;2.15;;;;;;;21.37;52.11;99576.88;4996818;28;20040;-80
2021/11/02 12:16:44;;;;;;;5.63;1.88;;;;;;;21.21;53.04;99577.72;4996403;28;20046;-77
2021/11/02 12:19:35;;;;;;;6.13;3.38;;;;;;;20.95;52.84;99585.38;4996313;28;20089;-79
2021/11/02 12:22:16;;;;;;;11.00;2.30;;;;;;;20.65;54.23;99584.56;4995839;28;20034;-78
2021/11/02 12:24:42;;;;;;;5.97;1.80;;;;;;;20.54;54.18;99583.28;5014379;28;20018;-83
2021/11/02 12:27:38;;;;;;;10.32;2.38;;;;;;;20.44;53.50;99587.16;4995964;28;20038;-80
2021/11/02 12:30:10;;;;;;;6.63;2.08;;;;;;;20.40;54.21;99590.88;4994299;28;20038;-78
2021/11/02 12:32:39;;;;;;;8.13;1.85;;;;;;;20.60;54.33;99599.25;4996796;28;20373;-81
2021/11/02 12:35:19;;;;;;;7.00;1.90;;;;;;;20.54;54.96;99594.59;5013849;28;20079;-79
2021/11/02 12:38:00;;;;;;;6.32;1.95;;;;;;;20.46;54.69;99591.16;5014344;28;20040;-80
2021/11/02 12:40:29;;;;;;;6.13;2.67;;;;;;;20.67;54.48;99601.91;5010540;28;20042;-76
2021/11/02 12:42:55;;;;;;;7.00;2.00;;;;;;;20.86;53.90;99599.34;4996716;28;20469;-76
2021/11/02 12:45:24;;;;;;;5.07;2.28;;;;;;;20.78;53.01;99595.16;4996419;28;20072;-72
2021/11/02 12:47:54;;;;;;;6.88;2.00;;;;;;;20.75;53.01;99608.13;4996226;28;20033;-77
2021/11/02 12:50:21;;;;;;;7.45;2.17;;;;;;;20.83;53.69;99606.69;4996450;28;20033;-77
2021/11/02 12:52:47;;;;;;;8.48;2.33;;;;;;;20.83;53.12;99598.22;5014118;28;20034;-75
2021/11/02 12:55:24;;;;;;;6.45;1.90;;;;;;;20.96;53.40;99600.28;4995892;28;20021;-73
2021/11/02 12:57:57;;;;;;;9.10;2.17;;;;;;;20.82;53.83;99585.31;5013898;28;20025;-75
2021/11/02 13:00:27;;;;;;;6.10;2.35;;;;;;;20.97;54.13;99593.38;4995763;28;20506;-75
2021/11/02 13:03:03;;;;;;;7.57;1.95;;;;;;;21.15;52.85;99596.50;4995841;28;20029;-80
2021/11/02 13:05:31;;;;;;;9.68;2.30;;;;;;;21.38;52.41;99586.94;4995989;28;20026;-84
2021/11/02 13:08:13;;;;;;;8.05;2.67;;;;;;;21.39;52.02;99589.31;4995758;28;20061;-84
2021/11/02 13:10:41;;;;;;;7.17;2.50;;;;;;;21.39;51.79;99600.63;5013922;28;20033;-86
2021/11/02 13:13:12;;;;;;;7.22;2.55;;;;;;;21.03;51.87;99600.88;4995144;28;20369;-81
2021/11/02 13:15:56;;;;;;;8.50;2.50;;;;;;;20.97;52.10;99584.91;4997138;28;20030;-82
2021/11/02 13:18:35;;;;;;;8.55;2.30;;;;;;;21.10;52.75;99614.81;5013881;28;20026;-83
2021/11/02 13:21:29;;;;;;;11.07;2.05;;;;;;;21.31;52.49;99593.63;5013642;28;20034;-82
2021/11/02 13:24:07;;;;;;;5.70;1.95;;;;;;;21.08;52.67;99613.66;4995907;28;20026;-82
2021/11/02 13:26:39;;;;;;;9.43;2.60;;;;;;;20.67;53.01;99620.88;4996060;28;20033;-79
2021/11/02 13:29:18;;;;;;;9.27;2.80;;;;;;;20.58;53.32;99623.56;4995791;28;20054;-75
2021/11/02 13:31:45;;;;;;;6.90;1.90;;;;;;;20.67;53.76;99620.88;4995800;28;20049;-78
2021/11/02 13:34:14;;;;;;;7.18;2.13;;;;;;;20.79;53.43;99620.13;4995896;28;20022;-77
2021/11/02 13:36:40;;;;;;;5.68;1.55;;;;;;;20.99;53.20;99616.38;4995831;28;20029;-78
2021/11/02 13:39:08;;;;;;;8.45;2.00;;;;;;;21.29;52.63;99623.56;4998359;28;20022;-77
2021/11/02 13:41:48;;;;;;;5.28;1.70;;;;;;;21.40;51.64;99630.50;4999827;28;20034;-75
2021/11/02 13:44:15;;;;;;;7.05;1.83;;;;;;;21.36;52.25;99624.19;5000598;28;20504;-74
2021/11/02 13:46:45;;;;;;;5.82;1.65;;;;;;;21.08;51.90;99599.53;5001022;28;20029;-76
2021/11/02 13:49:12;;;;;;;6.10;1.83;;;;;;;21.50;52.14;99617.28;5000101;28;20499;-76
2021/11/02 13:51:38;;;;;;;8.73;1.92;;;;;;;21.17;52.29;99625.13;4967393;28;20026;-74
2021/11/02 13:54:05;;;;;;;8.45;2.47;;;;;;;20.76;53.15;99615.38;4999179;28;20029;-75
2021/11/02 13:56:34;;;;;;;9.00;1.63;;;;;;;20.41;53.48;99620.72;4999479;28;20029;-75
2021/11/02 13:59:01;;;;;;;8.10;2.33;;;;;;;20.30;54.27;99634.34;4998750;28;20491;-76
2021/11/02 14:01:55;;;;;;;6.97;1.98;;;;;;;19.96;53.29;99642.44;4999289;28;20085;-76
2021/11/02 14:04:32;;;;;;;8.85;1.92;;;;;;;19.80;54.00;99640.38;5017508;28;20033;-76
2021/11/02 14:07:10;;;;;;;5.90;1.90;;;;;;;19.58;54.83;99648.53;4999453;28;20030;-77
2021/11/02 14:09:39;;;;;;;3.70;1.20;;;;;;;19.44;55.19;99665.75;4998919;28;20505;-74
2021/11/02 14:12:30;;;;;;;8.90;1.50;;;;;;;19.46;54.88;99657.66;4999637;28;20033;-77
2021/11/02 14:15:11;;;;;;;5.65;2.35;;;;;;;19.39;54.30;99658.63;4999130;28;20038;-76
2021/11/02 14:17:38;;;;;;;6.03;1.80;;;;;;;19.46;54.22;99661.28;4999259;28;20021;-76
2021/11/02 14:20:04;;;;;;;8.10;2.75;;;;;;;19.56;53.56;99665.09;4999101;28;20030;-77
2021/11/02 14:22:47;;;;;;;6.32;1.45;;;;;;;19.40;52.96;99668.69;4999142;28;20562;-76
2021/11/02 14:25:16;;;;;;;7.78;1.88;;;;;;;19.34;53.30;99668.38;4998822;28;20033;-77
2021/11/02 14:27:44;;;;;;;6.78;1.35;;;;;;;19.28;53.37;99672.97;4999235;28;20026;-75
2021/11/02 14:30:21;;;;;;;7.55;2.00;;;;;;;19.28;53.52;99687.06;4998860;28;20095;-75
2021/11/02 14:32:54;;;;;;;5.35;1.50;;;;;;;19.41;52.89;99700.50;4999044;28;20372;-76
2021/11/02 14:35:47;;;;;;;5.00;1.27;;;;;;;19.53;53.70;99713.94;4999094;28;20052;-82
2021/11/02 14:38:19;;;;;;;6.75;2.90;;;;;;;19.57;52.31;99700.56;4998769;28;20030;-79
2021/11/02 14:40:46;;;;;;;8.80;2.22;;;;;;;19.52;52.05;99696.22;5016667;28;20040;-79
2021/11/02 14:43:16;;;;;;;5.88;1.60;;;;;;;19.52;52.65;99698.25;4998975;28;20036;-80
2021/11/02 14:45:51;;;;;;;6.13;1.38;;;;;;;19.41;53.22;99675.09;4999317;28;20033;-79
2021/11/02 14:48:33;;;;;;;6.82;2.22;;;;;;;19.50;52.94;99689.44;4998728;28;20026;-78
2021/11/02 14:51:04;;;;;;;10.48;1.65;;;;;;;19.48;54.13;99689.06;4998812;28;20030;-80
2021/11/02 14:53:35;;;;;;;7.85;1.52;;;;;;;19.45;52.90;99687.91;4999411;28;20049;-81
2021/11/02 14:56:17;;;;;;;9.80;1.98;;;;;;;19.30;53.10;99689.44;4999171;28;20376;-78
2021/11/02 14:58:48;;;;;;;6.00;1.60;;;;;;;19.14;53.51;99676.06;5016437;28;20105;-81
2021/11/02 18:07:41;;;;;;;5.35;1.85;;;;;;;16.16;59.50;99848.91;5964188;23;21076;-76
2021/11/02 18:10:08;;;;;;;4.45;1.27;;;;;;;16.13;57.69;99838.47;4944483;29;20183;-75
2021/11/02 18:12:35;;;;;;;6.22;1.50;;;;;;;16.17;57.42;99847.69;4944733;29;20031;-74
2021/11/02 18:15:07;;;;;;;7.53;1.92;;;;;;;16.35;57.57;99846.78;4944714;29;20027;-75
2021/11/02 18:17:46;;;;;;;6.23;2.17;;;;;;;16.23;58.10;99845.25;4944186;29;20027;-75
2021/11/02 18:20:13;;;;;;;5.05;2.55;;;;;;;16.11;59.37;99857.75;4943869;29;20337;-74
2021/11/02 18:22:47;;;;;;;9.27;5.15;;;;;;;16.10;59.87;99856.16;4943847;29;20038;-75
2021/11/02 18:25:17;;;;;;;10.18;6.55;;;;;;;16.11;58.88;99852.13;4941919;29;20182;-74
2021/11/02 18:27:44;;;;;;;10.68;5.22;;;;;;;16.03;59.08;99861.78;4941288;29;20035;-74
2021/11/02 18:30:14;;;;;;;8.77;5.38;;;;;;;15.94;60.36;99861.44;4940927;29;20027;-74
2021/11/02 18:32:44;;;;;;;9.18;5.20;;;;;;;16.03;61.10;99860.97;4940975;29;20473;-74
2021/11/02 18:35:17;;;;;;;11.40;5.55;;;;;;;15.94;60.60;99864.25;4937654;29;20118;-74
2021/11/02 18:37:45;;;;;;;9.18;5.63;;;;;;;15.92;61.41;99866.63;4940579;29;20062;-74
2021/11/02 18:40:15;;;;;;;11.93;4.78;;;;;;;15.96;61.75;99873.84;4940454;29;20031;-74
2021/11/02 18:42:48;;;;;;;8.30;4.95;;;;;;;15.94;62.34;99853.03;4940284;29;20126;-75
2021/11/02 18:45:15;;;;;;;7.60;3.70;;;;;;;16.00;62.74;99862.63;4940224;29;20030;-74
2021/11/02 18:47:42;;;;;;;9.50;4.32;;;;;;;16.05;62.46;99862.19;4935834;29;20118;-74
2021/11/02 18:50:14;;;;;;;14.32;6.03;;;;;;;16.14;62.54;99854.13;4939953;29;20197;-74
2021/11/02 18:52:43;;;;;;;10.75;6.25;;;;;;;16.12;62.80;99856.53;4940034;29;20099;-74
2021/11/02 18:55:16;;;;;;;14.23;7.85;;;;;;;16.16;63.26;99865.75;4940017;29;20024;-74
2021/11/02 18:57:42;;;;;;;14.65;6.90;;;;;;;16.05;63.70;99864.19;4940470;29;20047;-74
2021/11/02 19:00:14;;;;;;;12.02;7.35;;;;;;;16.09;63.70;99860.19;4940106;29;20489;-74
2021/11/02 19:02:40;;;;;;;11.88;6.28;;;;;;;16.09;63.36;99853.75;4940232;29;20035;-75
2021/11/02 19:05:08;;;;;;;8.77;5.55;;;;;;;16.00;63.84;99862.63;4940132;29;20355;-75
2021/11/02 19:07:37;;;;;;;9.00;4.90;;;;;;;15.97;63.79;99871.84;4940260;29;20394;-74
2021/11/02 19:10:08;;;;;;;6.85;5.10;;;;;;;15.95;64.27;99874.25;4939104;29;20130;-74
2021/11/02 19:12:34;;;;;;;7.43;4.43;;;;;;;15.91;64.22;99873.47;4940237;29;20118;-74
2021/11/02 19:15:00;;;;;;;11.77;6.05;;;;;;;15.95;64.33;99888.28;4939628;29;20038;-74
2021/11/02 19:17:28;;;;;;;8.05;6.03;;;;;;;16.01;64.17;99889.47;4939539;29;20103;-74
2021/11/02 19:19:54;;;;;;;11.57;6.68;;;;;;;16.03;64.78;99883.44;4939701;29;20366;-74
2021/11/02 19:22:20;;;;;;;7.65;5.35;;;;;;;16.05;64.44;99887.44;4939473;29;20031;-75
2021/11/02 19:24:46;;;;;;;9.48;6.13;;;;;;;16.00;64.88;99871.03;4940117;29;20058;-74
2021/11/02 19:27:15;;;;;;;9.95;6.18;;;;;;;15.95;64.84;99871.44;4939563;29;20440;-74
2021/11/02 19:29:40;;;;;;;10.15;6.70;;;;;;;15.98;64.65;99876.25;4940178;29;20054;-74
2021/11/02 19:32:10;;;;;;;12.43;7.20;;;;;;;16.18;63.90;99884.97;4940025;29;20027;-74
2021/11/02 19:34:36;;;;;;;10.07;7.03;;;;;;;16.07;64.35;99885.03;4939439;29;20090;-74
2021/11/02 19:37:04;;;;;;;12.95;5.85;;;;;;;16.00;65.02;99896.28;4938733;29;20614;-74
2021/11/02 19:39:32;;;;;;;11.20;5.55;;;;;;;15.88;65.70;99885.50;4939705;29;20032;-74
2021/11/02 19:42:03;;;;;;;12.40;5.28;;;;;;;15.90;66.07;99886.69;4939982;29;20042;-74
2021/11/02 19:44:34;;;;;;;8.50;6.40;;;;;;;15.87;66.50;99889.50;4940194;29;20378;-74
2021/11/02 19:47:03;;;;;;;20.15;10.45;;;;;;;15.93;66.22;99893.50;4939191;29;20409;-74
2021/11/02 19:49:33;;;;;;;39.10;20.05;;;;;;;15.89;65.95;99889.91;4956232;29;20345;-74
2021/11/02 19:52:04;;;;;;;34.88;20.75;;;;;;;15.98;65.60;99893.91;4939517;29;20414;-74